Time;durP1;ratioP1;P1;durP2;ratioP2;P2;SDS_P1;SDS_P2;PMS_P1;PMS_P2;Temp;Humidity;BMP_temperature;BMP_pressure;BME280_temperature;BME280_humidity;BME280_pressure;Samples;Min_cycle;Max_cycle;Signal;HPM_P1;HPM_P2
2020/12/19 00:01:31;;;;;;;;;73.50;56.50;;;;;6.71;49.37;99865.06;6158433;28;97799;-52
2020/12/19 00:04:33;;;;;;;;;73.80;59.40;;;;;6.71;49.39;99861.56;6158434;28;97881;-52
2020/12/19 00:07:35;;;;;;;;;73.40;61.00;;;;;6.56;49.41;99845.38;6158713;28;96996;-53
2020/12/19 00:10:37;;;;;;;;;75.00;57.20;;;;;6.60;49.55;99851.25;6158216;28;97440;-53
2020/12/19 00:13:38;;;;;;;;;75.75;61.50;;;;;6.56;49.59;99841.84;6158285;28;97041;-52
2020/12/19 00:16:39;;;;;;;;;76.00;63.00;;;;;6.74;49.14;99874.63;6126035;28;98653;-53
2020/12/19 00:19:41;;;;;;;;;76.20;62.20;;;;;6.49;48.96;99855.13;6132191;28;97521;-51
2020/12/19 00:22:45;;;;;;;;;74.60;62.00;;;;;6.50;49.12;99854.09;6133242;28;97662;-53
2020/12/19 00:25:48;;;;;;;;;76.40;61.00;;;;;6.38;48.92;99850.94;6146860;28;96998;-52
2020/12/19 00:28:49;;;;;;;;;75.00;59.00;;;;;6.17;48.93;99825.72;6140621;28;97592;-52
2020/12/19 00:31:51;;;;;;;;;75.00;60.60;;;;;6.32;49.12;99870.38;6159016;28;97207;-52
2020/12/19 00:34:54;;;;;;;;;78.60;63.00;;;;;6.32;49.19;99885.59;6159795;28;97135;-52
2020/12/19 00:37:56;;;;;;;;;77.00;60.40;;;;;6.22;49.29;99888.47;6146293;28;97357;-50
2020/12/19 00:40:58;;;;;;;;;76.80;63.40;;;;;6.12;49.35;99877.09;6163371;28;97326;-52
2020/12/19 00:44:00;;;;;;;;;78.00;65.00;;;;;6.12;49.52;99881.63;6162487;28;97509;-51
2020/12/19 00:47:01;;;;;;;;;80.00;67.00;;;;;6.08;49.77;99876.59;6138241;28;99062;-52
2020/12/19 00:50:08;;;;;;;;;78.75;65.25;;;;;6.14;50.21;99884.97;6139600;28;97563;-52
2020/12/19 00:53:09;;;;;;;;;76.20;63.80;;;;;6.19;50.07;99879.94;6139846;28;97215;-51
2020/12/19 00:56:18;;;;;;;;;79.00;65.00;;;;;6.25;49.88;99881.97;6147804;28;96903;-51
2020/12/19 00:59:19;;;;;;;;;78.40;65.60;;;;;6.40;50.05;99888.28;6148215;28;97652;-53
2020/12/19 01:02:21;;;;;;;;;76.00;61.00;;;;;6.34;49.96;99883.59;6152403;28;96958;-52
2020/12/19 01:05:22;;;;;;;;;80.60;64.60;;;;;6.26;49.94;99875.56;6163374;28;97114;-53
2020/12/19 01:08:24;;;;;;;;;79.80;65.20;;;;;6.31;50.26;99876.72;6163176;28;99270;-52
2020/12/19 01:11:28;;;;;;;;;79.75;68.00;;;;;6.32;50.29;99878.41;6145368;28;98702;-53
2020/12/19 01:14:29;;;;;;;;;78.50;67.00;;;;;6.03;50.08;99829.94;6145322;28;97646;-52
2020/12/19 01:17:31;;;;;;;;;79.20;65.40;;;;;6.29;50.30;99867.22;6138920;28;97040;-52
2020/12/19 01:20:32;;;;;;;;;77.75;65.75;;;;;6.41;50.19;99877.38;6138717;28;99184;-52
2020/12/19 01:23:34;;;;;;;;;78.40;67.40;;;;;6.47;50.12;99866.00;6121311;28;98669;-52
2020/12/19 01:26:36;;;;;;;;;78.75;63.50;;;;;6.40;50.29;99877.56;6140176;28;97204;-53
2020/12/19 01:29:37;;;;;;;;;76.75;62.25;;;;;6.36;50.43;99873.53;6162806;28;96840;-53
2020/12/19 01:32:38;;;;;;;;;79.00;66.00;;;;;6.44;50.29;99878.91;6161717;28;97459;-53
2020/12/19 01:35:40;;;;;;;;;79.00;68.00;;;;;6.41;50.33;99888.09;6162470;28;96615;-53
2020/12/19 01:38:42;;;;;;;;;78.20;67.00;;;;;6.43;50.63;99875.38;6161656;28;97552;-51
2020/12/19 01:41:43;;;;;;;;;78.60;66.40;;;;;6.43;50.55;99875.38;6156276;28;97651;-52
2020/12/19 01:44:45;;;;;;;;;78.60;65.40;;;;;6.47;50.63;99871.34;6155074;28;96943;-51
2020/12/19 01:47:46;;;;;;;;;80.00;63.40;;;;;6.49;50.69;99865.84;6162119;28;96884;-52
2020/12/19 01:50:49;;;;;;;;;77.50;65.00;;;;;6.34;50.44;99840.75;6144974;28;96645;-52
2020/12/19 01:53:52;;;;;;;;;77.50;63.75;;;;;6.51;50.57;99863.81;6162459;28;97549;-51
2020/12/19 01:56:56;;;;;;;;;76.00;65.00;;;;;6.62;50.57;99855.41;6144762;28;96837;-52
2020/12/19 01:59:59;;;;;;;;;77.60;65.00;;;;;6.66;50.54;99854.03;6161588;28;98313;-51
2020/12/19 02:03:00;;;;;;;;;80.50;67.00;;;;;6.64;50.37;99842.69;6153523;28;96744;-52
2020/12/19 02:06:04;;;;;;;;;79.40;67.00;;;;;6.66;50.36;99842.47;6137958;28;97590;-52
2020/12/19 02:09:07;;;;;;;;;79.00;65.80;;;;;6.58;50.43;99835.31;6136978;28;96687;-52
2020/12/19 02:12:09;;;;;;;;;77.50;63.00;;;;;6.54;50.49;99828.66;6137363;28;96974;-52
2020/12/19 02:15:10;;;;;;;;;80.20;65.20;;;;;6.56;50.42;99823.94;6161521;28;97556;-52
2020/12/19 02:18:12;;;;;;;;;76.60;65.00;;;;;6.51;50.94;99819.09;6161777;28;97599;-51
2020/12/19 02:21:14;;;;;;;;;79.75;69.00;;;;;6.56;50.92;99826.59;6159481;28;97074;-51
2020/12/19 02:24:15;;;;;;;;;77.25;65.00;;;;;6.33;50.85;99790.88;6160847;28;97142;-51
2020/12/19 02:27:17;;;;;;;;;78.20;66.40;;;;;6.64;51.00;99828.44;6161531;28;97078;-52
2020/12/19 02:30:19;;;;;;;;;79.00;66.25;;;;;6.67;50.77;99820.88;6160319;28;96803;-51
2020/12/19 02:33:20;;;;;;;;;81.20;67.20;;;;;6.66;50.85;99813.84;6160574;28;97291;-51
2020/12/19 02:36:40;;;;;;;;;77.50;65.00;;;;;6.73;50.76;99820.19;6160688;28;97859;-51
2020/12/19 02:39:41;;;;;;;;;79.20;63.00;;;;;6.76;50.62;99810.94;6160712;28;97792;-51
2020/12/19 02:42:43;;;;;;;;;77.40;63.40;;;;;6.77;50.61;99812.63;6145854;28;98521;-51
2020/12/19 02:45:45;;;;;;;;;79.00;65.25;;;;;6.85;50.64;99816.09;6135788;28;97606;-52
2020/12/19 02:48:47;;;;;;;;;77.00;63.20;;;;;6.80;50.66;99810.44;6140592;28;97692;-52
2020/12/19 02:51:49;;;;;;;;;77.60;62.20;;;;;6.81;50.92;99814.78;6160487;28;97696;-52
2020/12/19 02:54:51;;;;;;;;;79.20;67.80;;;;;6.88;50.84;99804.22;6158307;28;97480;-52
2020/12/19 02:57:53;;;;;;;;;77.00;61.60;;;;;6.91;50.50;99804.69;6159947;28;98814;-52
2020/12/19 03:00:54;;;;;;;;;78.00;62.50;;;;;6.58;50.47;99738.03;6143050;28;98544;-52
2020/12/19 03:03:57;;;;;;;;;78.20;64.20;;;;;6.96;50.63;99788.06;6160253;28;97501;-52
2020/12/19 03:07:06;;;;;;;;;77.40;63.20;;;;;7.00;50.05;99783.19;6157292;28;96688;-52
2020/12/19 03:10:07;;;;;;;;;77.80;65.00;;;;;6.97;50.15;99781.69;6153064;28;96647;-52
2020/12/19 03:13:09;;;;;;;;;78.00;64.00;;;;;6.95;49.93;99795.28;6144784;28;96927;-52
2020/12/19 03:16:11;;;;;;;;;77.00;65.00;;;;;6.85;50.50;99770.53;6160290;28;97222;-51
2020/12/19 03:19:12;;;;;;;;;79.40;67.60;;;;;7.08;50.31;99788.50;6159524;28;97215;-51
2020/12/19 03:22:14;;;;;;;;;77.25;64.00;;;;;7.14;50.11;99785.09;6160341;28;97764;-51
2020/12/19 03:25:15;;;;;;;;;76.00;64.80;;;;;7.13;50.26;99778.94;6141923;28;97518;-52
2020/12/19 03:28:20;;;;;;;;;76.00;61.00;;;;;7.15;50.21;99786.78;6137187;28;97369;-51
2020/12/19 03:31:21;;;;;;;;;75.00;60.00;;;;;7.23;50.42;99792.09;6141671;28;96564;-51
2020/12/19 03:34:23;;;;;;;;;75.00;56.60;;;;;7.23;50.24;99787.53;6160217;28;99155;-52
2020/12/19 03:37:24;;;;;;;;;75.00;59.00;;;;;7.25;50.02;99782.84;6159873;28;96910;-52
2020/12/19 03:40:26;;;;;;;;;73.80;60.00;;;;;7.28;50.06;99771.75;6142125;28;97181;-52
2020/12/19 03:43:27;;;;;;;;;75.50;61.50;;;;;7.30;50.09;99759.00;6147904;28;97178;-51
2020/12/19 03:46:29;;;;;;;;;76.40;60.40;;;;;7.26;49.57;99754.19;6159736;28;97064;-52
2020/12/19 03:49:30;;;;;;;;;76.00;60.60;;;;;7.19;49.87;99747.84;6138788;28;97480;-52
2020/12/19 03:52:31;;;;;;;;;75.00;60.00;;;;;7.13;49.73;99743.22;6134654;28;97240;-52
2020/12/19 03:55:33;;;;;;;;;76.00;58.40;;;;;7.07;49.74;99739.41;6157675;28;97090;-52
2020/12/19 03:58:34;;;;;;;;;74.00;56.80;;;;;7.04;49.88;99742.44;6159706;28;97220;-52
2020/12/19 04:01:36;;;;;;;;;73.20;56.80;;;;;6.99;49.96;99738.63;6159586;28;97000;-52
2020/12/19 04:04:38;;;;;;;;;73.00;57.40;;;;;7.00;49.76;99740.28;6135416;28;97524;-51
2020/12/19 04:07:40;;;;;;;;;71.40;55.00;;;;;6.99;49.59;99741.31;6135888;28;97654;-52
2020/12/19 04:10:41;;;;;;;;;72.25;54.50;;;;;6.93;49.71;99734.81;6162409;28;97381;-51
2020/12/19 04:13:43;;;;;;;;;73.60;55.60;;;;;6.94;49.70;99734.63;6164110;28;98714;-51
2020/12/19 04:16:48;;;;;;;;;70.00;53.80;;;;;6.92;49.75;99728.63;6139949;28;97187;-52
2020/12/19 04:19:50;;;;;;;;;70.00;53.40;;;;;6.97;49.73;99723.56;6139628;28;97406;-52
2020/12/19 04:22:52;;;;;;;;;72.00;53.00;;;;;6.91;49.83;99726.94;6138725;28;97260;-51
2020/12/19 04:25:54;;;;;;;;;72.00;54.50;;;;;6.92;49.80;99739.34;6161662;28;97010;-52
2020/12/19 04:28:56;;;;;;;;;72.50;55.25;;;;;6.97;49.82;99738.81;6163194;28;97480;-52
2020/12/19 04:31:58;;;;;;;;;70.40;53.00;;;;;7.03;49.83;99745.31;6162361;28;96836;-52
2020/12/19 04:35:00;;;;;;;;;74.75;54.00;;;;;7.05;49.96;99733.38;6138728;28;97132;-52
2020/12/19 04:38:01;;;;;;;;;72.00;54.80;;;;;7.09;50.11;99734.69;6138809;28;97187;-52
2020/12/19 04:41:03;;;;;;;;;73.60;54.00;;;;;6.88;50.01;99695.16;6138785;28;97071;-54
2020/12/19 04:44:05;;;;;;;;;72.00;55.00;;;;;7.12;49.91;99733.50;6157067;28;96727;-51
2020/12/19 04:47:06;;;;;;;;;69.80;52.80;;;;;7.13;49.21;99732.50;6162731;28;97563;-51
2020/12/19 04:50:08;;;;;;;;;73.60;56.20;;;;;7.11;49.41;99730.00;6163149;28;98448;-52
2020/12/19 04:53:17;;;;;;;;;71.40;53.00;;;;;6.99;49.57;99720.69;6162940;28;97442;-52
2020/12/19 04:56:22;;;;;;;;;68.25;51.50;;;;;6.96;49.53;99729.09;6163067;28;97184;-52
2020/12/19 04:59:23;;;;;;;;;69.80;51.80;;;;;6.97;49.89;99731.59;6120531;28;97072;-53
2020/12/19 05:02:25;;;;;;;;;71.80;52.20;;;;;7.02;49.89;99735.59;6137617;28;97558;-52
2020/12/19 05:05:26;;;;;;;;;69.20;53.00;;;;;7.00;50.06;99738.44;6162362;28;98525;-52
2020/12/19 05:08:28;;;;;;;;;66.50;51.00;;;;;7.08;49.94;99740.25;6153118;28;97377;-52
2020/12/19 05:11:29;;;;;;;;;64.25;51.00;;;;;7.12;49.78;99734.34;6137916;28;97619;-52
2020/12/19 05:14:32;;;;;;;;;66.50;50.75;;;;;7.13;49.47;99743.22;6138149;28;96957;-53
2020/12/19 05:17:33;;;;;;;;;64.00;49.20;;;;;7.06;49.26;99739.56;6180088;28;98436;-53
2020/12/19 05:20:36;;;;;;;;;64.00;48.00;;;;;6.78;49.24;99707.09;6148861;28;96592;-52
2020/12/19 05:23:40;;;;;;;;;65.50;49.25;;;;;6.96;49.48;99734.44;6138120;28;96568;-52
2020/12/19 05:26:44;;;;;;;;;65.80;49.00;;;;;7.01;49.87;99729.38;6159536;28;97119;-52
2020/12/19 05:29:47;;;;;;;;;62.50;49.00;;;;;6.92;49.36;99720.56;6161942;28;96479;-52
2020/12/19 05:32:52;;;;;;;;;63.67;50.00;;;;;6.94;49.38;99737.28;6160072;28;97321;-52
2020/12/19 05:35:54;;;;;;;;;63.00;49.60;;;;;6.91;49.48;99740.34;6162207;28;98881;-52
2020/12/19 05:39:01;;;;;;;;;65.40;50.00;;;;;6.82;49.60;99737.91;6157408;28;96886;-52
2020/12/19 05:42:03;;;;;;;;;61.40;48.00;;;;;6.79;49.78;99739.06;6161781;28;97721;-52
2020/12/19 05:45:18;;;;;;;;;64.20;48.40;;;;;6.76;49.95;99739.44;6159651;28;97507;-51
2020/12/19 05:48:20;;;;;;;;;61.60;47.40;;;;;6.73;49.75;99739.78;6157286;28;97621;-51
2020/12/19 05:51:21;;;;;;;;;60.00;46.00;;;;;6.67;49.23;99737.81;6161596;28;97428;-52
2020/12/19 05:54:23;;;;;;;;;62.00;48.00;;;;;6.65;50.13;99737.13;6162089;28;97734;-53
2020/12/19 05:57:27;;;;;;;;;61.00;46.20;;;;;6.44;50.06;99724.38;6157326;28;97759;-52
2020/12/19 06:00:30;;;;;;;;;62.00;46.00;;;;;6.54;49.87;99740.22;6137627;28;97702;-52
2020/12/19 06:03:35;;;;;;;;;62.20;47.80;;;;;6.49;50.03;99738.09;6161904;28;97580;-52
2020/12/19 06:06:44;;;;;;;;;62.50;47.25;;;;;6.51;49.62;99745.91;6161186;28;96525;-52
2020/12/19 06:09:45;;;;;;;;;63.25;48.00;;;;;6.50;49.97;99744.25;6160822;28;98515;-52
2020/12/19 06:12:52;;;;;;;;;63.50;49.00;;;;;6.45;50.00;99747.44;6161146;28;97912;-52
2020/12/19 06:16:05;;;;;;;;;61.50;47.75;;;;;6.31;49.85;99734.78;6160534;28;96753;-51
2020/12/19 06:19:14;;;;;;;;;61.00;48.00;;;;;6.21;50.21;99746.72;6159547;28;97582;-52
2020/12/19 06:22:15;;;;;;;;;63.40;47.20;;;;;6.16;50.71;99757.94;6161750;28;97103;-52
2020/12/19 06:25:53;;;;;;;;;61.60;48.00;;;;;6.13;50.93;99730.69;6161340;28;97439;-52
2020/12/19 06:28:55;;;;;;;;;60.00;47.00;;;;;6.45;50.58;99763.53;6026966;28;97123;-52
2020/12/19 06:31:59;;;;;;;;;62.00;48.00;;;;;6.52;50.53;99772.56;6137358;28;98604;-51
2020/12/19 06:35:05;;;;;;;;;61.00;47.00;;;;;6.61;50.53;99775.19;6137667;28;97406;-51
2020/12/19 06:38:06;;;;;;;;;59.40;47.40;;;;;6.72;50.31;99772.97;6137242;28;96741;-51
2020/12/19 06:41:08;;;;;;;;;62.20;48.00;;;;;6.83;50.04;99782.47;6136911;28;97278;-52
2020/12/19 06:44:10;;;;;;;;;62.00;48.00;;;;;6.88;49.93;99777.41;6136494;28;96645;-53
2020/12/19 06:47:19;;;;;;;;;61.00;47.00;;;;;6.93;49.94;99780.38;6136841;28;98534;-52
2020/12/19 06:50:22;;;;;;;;;64.00;48.00;;;;;6.96;49.68;99790.75;6153126;28;97198;-52
2020/12/19 06:53:25;;;;;;;;;57.80;45.00;;;;;7.00;49.58;99785.84;6143616;28;98514;-53
2020/12/19 06:56:27;;;;;;;;;61.00;46.00;;;;;7.01;49.19;99792.91;6161415;28;97286;-55
2020/12/19 06:59:31;;;;;;;;;60.00;46.00;;;;;7.02;49.08;99789.22;6159829;28;97238;-52
2020/12/19 07:02:48;;;;;;;;;61.00;47.40;;;;;7.02;49.28;99787.38;6160117;28;97209;-51
2020/12/19 07:05:49;;;;;;;;;57.40;44.80;;;;;7.03;48.91;99790.88;6143458;28;98430;-51
2020/12/19 07:08:52;;;;;;;;;58.00;46.00;;;;;7.05;48.79;99799.56;6160288;28;98208;-51
2020/12/19 07:11:54;;;;;;;;;57.00;44.50;;;;;6.97;48.89;99793.25;6160411;28;97290;-52
2020/12/19 07:14:58;;;;;;;;;60.00;46.00;;;;;6.98;49.21;99804.81;6160069;28;96949;-52
2020/12/19 07:18:00;;;;;;;;;62.00;48.00;;;;;7.01;49.17;99801.78;6158165;28;97235;-52
2020/12/19 07:21:09;;;;;;;;;58.00;44.00;;;;;7.03;49.29;99802.44;6160955;28;98545;-52
2020/12/19 07:24:11;;;;;;;;;58.50;46.00;;;;;7.12;49.03;99805.91;6145326;28;97674;-52
2020/12/19 07:27:12;;;;;;;;;56.00;45.00;;;;;7.16;48.73;99799.19;6136539;28;97372;-52
2020/12/19 07:30:14;;;;;;;;;58.00;45.00;;;;;7.22;48.61;99798.47;6135507;28;97111;-52
2020/12/19 07:33:16;;;;;;;;;60.40;45.00;;;;;7.26;48.58;99802.47;6135902;28;98495;-53
2020/12/19 07:36:19;;;;;;;;;56.50;44.25;;;;;7.25;48.56;99798.09;6120165;28;97493;-53
2020/12/19 07:39:22;;;;;;;;;56.50;44.00;;;;;7.28;48.26;99793.22;6159703;28;96596;-53
2020/12/19 07:42:23;;;;;;;;;55.25;43.00;;;;;7.08;48.38;99757.16;6160012;28;97242;-53
2020/12/19 07:45:27;;;;;;;;;54.40;43.40;;;;;7.36;48.19;99803.91;6140388;28;97084;-53
2020/12/19 07:48:28;;;;;;;;;60.50;45.75;;;;;7.35;48.24;99801.38;6159052;28;96913;-53
2020/12/19 07:51:29;;;;;;;;;56.40;44.00;;;;;7.12;48.48;99760.31;6160226;28;99071;-52
2020/12/19 07:54:31;;;;;;;;;58.25;45.00;;;;;7.42;48.53;99809.56;6158625;28;97340;-52
2020/12/19 07:57:33;;;;;;;;;58.20;44.20;;;;;7.44;48.26;99808.34;6159950;28;97226;-52
2020/12/19 08:00:35;;;;;;;;;56.25;44.00;;;;;7.48;48.51;99820.38;6158673;28;96804;-51
2020/12/19 08:03:36;;;;;;;;;58.75;45.00;;;;;7.51;48.41;99809.31;6159180;28;96786;-51
2020/12/19 08:06:53;;;;;;;;;57.20;45.60;;;;;7.48;48.15;99804.28;6159371;28;97236;-51
2020/12/19 08:10:07;;;;;;;;;60.60;46.40;;;;;7.50;48.09;99799.59;6159459;28;97128;-51
2020/12/19 08:13:10;;;;;;;;;55.00;43.20;;;;;7.54;48.26;99803.59;6159262;28;96810;-51
2020/12/19 08:16:12;;;;;;;;;55.80;44.00;;;;;7.57;47.71;99803.25;6158550;28;97575;-51
2020/12/19 08:19:34;;;;;;;;;57.60;45.60;;;;;7.54;47.81;99803.59;6134651;28;97410;-51
2020/12/19 08:22:37;;;;;;;;;56.60;43.60;;;;;7.21;47.99;99751.19;6158009;28;97565;-51
2020/12/19 08:25:38;;;;;;;;;57.00;44.75;;;;;7.58;48.00;99810.25;6159116;28;97811;-52
2020/12/19 08:28:40;;;;;;;;;56.00;43.00;;;;;7.58;48.15;99812.09;6157148;28;97525;-51
2020/12/19 08:31:42;;;;;;;;;56.60;43.00;;;;;7.62;48.02;99813.44;6150211;28;97167;-52
2020/12/19 08:34:43;;;;;;;;;54.00;41.80;;;;;7.66;47.78;99812.91;6158133;28;98418;-51
2020/12/19 08:37:45;;;;;;;;;57.50;44.00;;;;;7.52;48.05;99791.38;6157872;28;97470;-51
2020/12/19 08:40:49;;;;;;;;;53.40;43.00;;;;;7.58;47.88;99791.47;6157157;28;97483;-52
2020/12/19 08:43:55;;;;;;;;;59.00;45.00;;;;;7.71;47.64;99791.72;6157131;28;96806;-52
2020/12/19 08:47:02;;;;;;;;;58.00;45.25;;;;;7.62;47.20;99803.53;6158013;28;96761;-51
2020/12/19 08:50:03;;;;;;;;;59.80;46.00;;;;;7.70;47.53;99800.78;6155701;28;97708;-52
2020/12/19 08:53:08;;;;;;;;;61.40;45.60;;;;;7.67;47.79;99800.31;6178712;28;97135;-52
2020/12/19 08:56:15;;;;;;;;;58.20;45.20;;;;;7.66;47.77;99793.28;6169744;28;97124;-52
2020/12/19 08:59:27;;;;;;;;;60.60;47.00;;;;;7.67;47.41;99795.75;6155821;28;96668;-51
2020/12/19 09:02:28;;;;;;;;;57.80;44.80;;;;;7.70;47.63;99784.66;6169501;28;97442;-53
2020/12/19 09:05:42;;;;;;;;;53.60;43.60;;;;;7.72;47.61;99790.66;6123511;28;98833;-52
2020/12/19 09:08:46;;;;;;;;;55.25;43.00;;;;;7.73;47.43;99796.88;6142950;28;98692;-52
2020/12/19 09:11:48;;;;;;;;;55.00;43.00;;;;;7.56;47.35;99760.47;6160431;28;97083;-52
2020/12/19 09:14:50;;;;;;;;;54.40;42.80;;;;;7.67;47.51;99787.69;6161505;28;97164;-51
2020/12/19 09:17:52;;;;;;;;;53.75;42.00;;;;;7.64;47.63;99780.03;6144511;28;97556;-52
2020/12/19 09:20:56;;;;;;;;;53.50;42.50;;;;;7.61;47.64;99776.88;6138277;28;97521;-52
2020/12/19 09:23:57;;;;;;;;;56.80;42.60;;;;;7.38;47.74;99750.03;6141157;28;98061;-52
2020/12/19 09:26:59;;;;;;;;;52.00;40.60;;;;;7.49;48.06;99773.78;6151907;28;96582;-52
2020/12/19 09:30:00;;;;;;;;;54.60;42.00;;;;;7.50;48.08;99772.75;6161436;28;97051;-51
2020/12/19 09:33:02;;;;;;;;;49.00;39.00;;;;;7.51;48.11;99770.91;6147369;28;98054;-51
2020/12/19 09:36:03;;;;;;;;;53.50;41.00;;;;;7.55;48.27;99765.00;6156198;28;96579;-51
2020/12/19 09:39:05;;;;;;;;;55.25;42.00;;;;;7.59;47.89;99758.25;6158402;28;96712;-52
2020/12/19 09:42:06;;;;;;;;;50.60;40.00;;;;;7.63;48.07;99758.72;6137906;28;98992;-52
2020/12/19 09:45:08;;;;;;;;;55.60;42.60;;;;;7.46;47.94;99728.53;6150491;28;98553;-53
2020/12/19 09:48:14;;;;;;;;;51.50;40.75;;;;;7.72;48.04;99758.47;6138064;28;96778;-52
2020/12/19 09:51:15;;;;;;;;;53.50;41.25;;;;;7.74;48.20;99753.75;6158205;28;97206;-52
2020/12/19 09:54:16;;;;;;;;;54.00;43.00;;;;;7.80;48.07;99747.66;6150995;28;96481;-52
2020/12/19 09:57:19;;;;;;;;;53.00;41.60;;;;;7.92;47.87;99742.66;6143631;28;98273;-53
2020/12/19 10:00:21;;;;;;;;;50.00;39.00;;;;;8.02;47.74;99770.09;6160256;28;97220;-53
2020/12/19 10:03:22;;;;;;;;;50.40;39.20;;;;;8.11;47.53;99758.22;6145723;28;97462;-52
2020/12/19 10:06:24;;;;;;;;;47.60;39.60;;;;;7.97;47.51;99731.38;6160080;28;97033;-52
2020/12/19 10:09:25;;;;;;;;;52.00;39.20;;;;;8.13;47.55;99756.22;6158311;28;96640;-52
2020/12/19 10:12:27;;;;;;;;;52.40;39.40;;;;;8.03;47.68;99738.69;6160554;28;97164;-52
2020/12/19 10:15:29;;;;;;;;;52.00;40.00;;;;;8.05;47.66;99729.44;6160336;28;98437;-52
2020/12/19 10:18:30;;;;;;;;;47.75;37.50;;;;;8.09;47.69;99736.13;6158907;28;97193;-52
2020/12/19 10:21:32;;;;;;;;;50.20;38.40;;;;;8.25;47.15;99745.84;6159033;28;97650;-52
2020/12/19 10:24:34;;;;;;;;;48.40;38.80;;;;;8.27;47.11;99749.16;6155212;28;98417;-52
2020/12/19 10:27:36;;;;;;;;;49.60;39.00;;;;;8.28;46.76;99746.28;6159433;28;97060;-52
2020/12/19 10:30:37;;;;;;;;;48.00;38.00;;;;;8.23;46.99;99737.13;6159844;28;97758;-52
2020/12/19 10:33:38;;;;;;;;;51.50;40.25;;;;;8.30;47.49;99735.41;6171725;28;97153;-53
2020/12/19 10:36:40;;;;;;;;;51.00;38.75;;;;;8.30;47.15;99739.94;6159419;28;97157;-52
2020/12/19 10:39:42;;;;;;;;;53.00;41.00;;;;;8.31;47.36;99744.31;6155922;28;96646;-52
2020/12/19 10:42:43;;;;;;;;;52.00;41.00;;;;;8.40;47.20;99738.66;6159104;28;96616;-52
2020/12/19 10:45:45;;;;;;;;;52.00;41.00;;;;;8.45;47.27;99740.75;6155202;28;97635;-52
2020/12/19 10:48:47;;;;;;;;;52.00;40.00;;;;;8.52;47.37;99733.59;6171625;28;97459;-51
2020/12/19 10:51:49;;;;;;;;;53.00;39.00;;;;;8.58;47.20;99728.31;6161392;28;97720;-52
2020/12/19 10:54:50;;;;;;;;;49.60;38.00;;;;;8.65;47.49;99736.44;6156413;28;97527;-52
2020/12/19 10:57:52;;;;;;;;;51.60;39.00;;;;;8.71;47.03;99730.31;6164758;28;97159;-52
2020/12/19 11:00:53;;;;;;;;;46.00;38.50;;;;;8.77;46.83;99731.41;6159422;28;98570;-53
2020/12/19 11:03:54;;;;;;;;;50.00;39.00;;;;;8.82;46.58;99726.31;6159045;28;98400;-52
2020/12/19 11:06:56;;;;;;;;;50.00;39.33;;;;;8.83;46.54;99731.50;6159323;28;97374;-53
2020/12/19 11:09:57;;;;;;;;;45.00;36.50;;;;;8.88;46.32;99723.72;6148994;28;97602;-52
2020/12/19 11:13:03;;;;;;;;;48.25;37.25;;;;;8.84;46.23;99708.97;6123474;28;97587;-52
2020/12/19 11:16:04;;;;;;;;;48.80;39.20;;;;;7.89;46.30;99559.63;6141671;28;97103;-52
2020/12/19 11:19:09;;;;;;;;;48.00;39.00;;;;;8.50;46.46;99647.78;6147452;28;96979;-52
2020/12/19 11:22:10;;;;;;;;;47.00;38.60;;;;;8.99;46.82;99723.19;6102002;28;97293;-52
2020/12/19 11:25:12;;;;;;;;;50.80;40.40;;;;;9.00;46.33;99716.78;6135510;28;97641;-52
2020/12/19 11:28:13;;;;;;;;;48.60;37.00;;;;;9.07;46.16;99719.56;6156820;28;96940;-52
2020/12/19 11:31:15;;;;;;;;;47.80;39.20;;;;;9.06;46.22;99707.94;6159894;28;97553;-52
2020/12/19 11:34:17;;;;;;;;;50.80;40.60;;;;;9.06;46.08;99705.25;6146475;28;98701;-52
2020/12/19 11:37:18;;;;;;;;;52.00;38.00;;;;;9.18;46.09;99713.66;6138656;28;97198;-52
2020/12/19 11:40:20;;;;;;;;;51.00;40.00;;;;;9.14;46.40;99707.81;6142849;28;97183;-53
2020/12/19 11:43:23;;;;;;;;;50.80;39.00;;;;;9.33;46.00;99732.44;6159540;28;97888;-52
2020/12/19 11:46:24;;;;;;;;;51.60;39.40;;;;;9.32;46.53;99714.63;6125201;28;99233;-52
2020/12/19 11:49:25;;;;;;;;;48.80;39.00;;;;;9.27;46.41;99717.06;6158954;28;97210;-52
2020/12/19 11:52:27;;;;;;;;;48.60;39.00;;;;;9.07;46.65;99714.16;6159493;28;97517;-52
2020/12/19 11:55:28;;;;;;;;;55.00;40.00;;;;;9.04;46.71;99719.94;6159684;28;97483;-53
2020/12/19 11:58:30;;;;;;;;;49.00;38.00;;;;;8.87;47.20;99711.28;6128443;28;97397;-52
2020/12/19 12:01:31;;;;;;;;;49.25;39.25;;;;;8.77;47.13;99696.47;6142960;28;97547;-52
2020/12/19 12:04:33;;;;;;;;;52.60;40.00;;;;;8.82;47.16;99708.31;6158849;28;97193;-52
2020/12/19 12:07:37;;;;;;;;;51.80;41.00;;;;;8.69;47.26;99708.19;6157772;28;97521;-51
2020/12/19 12:10:38;;;;;;;;;51.75;40.25;;;;;8.67;47.72;99710.22;6158658;28;98630;-51
2020/12/19 12:13:40;;;;;;;;;50.00;39.25;;;;;8.65;48.04;99706.88;6160075;28;97458;-52
2020/12/19 12:16:41;;;;;;;;;50.00;40.00;;;;;8.69;47.74;99708.19;6157456;28;96557;-52
2020/12/19 12:19:43;;;;;;;;;49.00;38.40;;;;;8.77;47.79;99705.38;6156808;28;97071;-52
2020/12/19 12:22:48;;;;;;;;;49.60;40.20;;;;;8.70;47.88;99707.13;6158766;28;97515;-51
2020/12/19 12:25:49;;;;;;;;;49.75;38.75;;;;;8.55;47.97;99693.75;6150213;28;98541;-51
2020/12/19 12:28:51;;;;;;;;;49.60;39.60;;;;;8.58;48.27;99693.38;6183497;28;96619;-52
2020/12/19 12:31:53;;;;;;;;;49.00;38.00;;;;;8.67;48.32;99686.88;6180555;28;96846;-51
2020/12/19 12:35:08;;;;;;;;;50.00;40.00;;;;;8.78;48.09;99684.69;6164381;28;98525;-52
2020/12/19 12:38:10;;;;;;;;;49.60;41.00;;;;;8.83;47.75;99685.78;6163987;28;98668;-52
2020/12/19 12:41:11;;;;;;;;;48.00;39.00;;;;;8.93;48.02;99685.47;6163822;28;97027;-52
2020/12/19 12:44:13;;;;;;;;;49.20;39.60;;;;;8.91;47.88;99674.06;6163275;28;97548;-53
2020/12/19 12:47:15;;;;;;;;;47.40;39.00;;;;;9.05;47.85;99690.16;6163649;28;96547;-53
2020/12/19 12:50:16;;;;;;;;;48.40;38.00;;;;;9.08;47.40;99678.19;6140851;28;98531;-53
2020/12/19 12:53:18;;;;;;;;;52.80;40.00;;;;;9.07;47.40;99681.88;6155398;28;97960;-54
2020/12/19 12:56:23;;;;;;;;;46.20;36.60;;;;;8.96;47.35;99685.91;6159598;28;97264;-53
2020/12/19 12:59:25;;;;;;;;;49.80;38.60;;;;;8.89;47.60;99679.66;6158749;28;97044;-53
2020/12/19 13:02:26;;;;;;;;;46.50;38.00;;;;;8.84;47.82;99683.94;6160445;28;97530;-53
2020/12/19 13:05:28;;;;;;;;;50.00;40.00;;;;;8.88;48.17;99682.53;6160568;28;98137;-52
2020/12/19 13:08:29;;;;;;;;;48.00;38.00;;;;;8.86;47.87;99679.19;6161555;28;97377;-53
2020/12/19 13:11:30;;;;;;;;;49.60;37.40;;;;;8.86;48.09;99681.88;6161261;28;97432;-53
2020/12/19 13:14:32;;;;;;;;;49.00;39.75;;;;;8.86;48.09;99671.97;6160376;28;97464;-53
2020/12/19 13:17:33;;;;;;;;;50.40;39.00;;;;;8.93;47.93;99678.25;6170585;28;97635;-53
2020/12/19 13:20:35;;;;;;;;;52.00;39.40;;;;;8.97;47.96;99670.63;6146576;28;97410;-53
2020/12/19 13:23:36;;;;;;;;;52.00;41.40;;;;;8.95;47.78;99670.81;6161915;28;97818;-53
2020/12/19 13:26:38;;;;;;;;;52.00;40.00;;;;;8.99;47.65;99680.16;6162256;28;96435;-54
2020/12/19 13:29:39;;;;;;;;;49.40;37.80;;;;;8.99;47.66;99676.66;6156284;28;97093;-52
2020/12/19 13:32:40;;;;;;;;;45.50;36.00;;;;;8.98;47.60;99681.19;6159546;28;97287;-52
2020/12/19 13:35:42;;;;;;;;;48.00;37.80;;;;;8.89;47.80;99674.28;6170499;28;97192;-52
2020/12/19 13:38:44;;;;;;;;;43.60;36.00;;;;;8.83;47.75;99676.91;6186141;28;98571;-54
2020/12/19 13:41:46;;;;;;;;;49.40;37.40;;;;;8.54;48.15;99637.50;6166190;28;97136;-53
2020/12/19 13:44:47;;;;;;;;;49.00;38.00;;;;;8.70;48.16;99674.88;6159965;28;98667;-53
2020/12/19 13:47:49;;;;;;;;;45.00;36.00;;;;;8.67;48.60;99677.97;6160528;28;98356;-53
2020/12/19 13:50:50;;;;;;;;;49.00;38.00;;;;;8.69;48.56;99676.75;6159841;28;97189;-59
2020/12/19 13:53:51;;;;;;;;;47.25;38.00;;;;;8.68;48.63;99677.78;6159770;28;96717;-52
2020/12/19 13:56:54;;;;;;;;;49.60;39.00;;;;;8.74;48.61;99681.56;6160075;28;97333;-53
2020/12/19 13:59:56;;;;;;;;;49.20;39.00;;;;;8.79;48.74;99686.38;6158595;28;96546;-54
2020/12/19 14:02:58;;;;;;;;;50.00;38.60;;;;;8.84;48.77;99692.84;6161210;28;97696;-52
2020/12/19 14:05:59;;;;;;;;;50.25;40.00;;;;;8.87;49.00;99678.16;6155241;28;96763;-54
2020/12/19 14:09:01;;;;;;;;;51.25;40.75;;;;;8.92;48.65;99694.56;6159283;28;97647;-52